Time;durP1;ratioP1;P1;durP2;ratioP2;P2;SDS_P1;SDS_P2;PMS_P1;PMS_P2;Temp;Humidity;BMP_temperature;BMP_pressure;BME280_temperature;BME280_humidity;BME280_pressure;Samples;Min_cycle;Max_cycle;Signal;HPM_P1;HPM_P2
2023/12/10 00:00:14;;;;;;;0.90;0.90;;;;;;;1.75;79.74;99066.31;5116062;28;20044;-78
2023/12/10 00:02:43;;;;;;;2.67;1.58;;;;;;;1.63;79.11;99043.38;5116743;28;20046;-78
2023/12/10 00:05:12;;;;;;;1.15;1.05;;;;;;;1.75;80.21;99073.84;5115629;28;20043;-77
2023/12/10 00:07:44;;;;;;;0.40;0.40;;;;;;;1.66;79.70;99068.56;5117332;28;20039;-76
2023/12/10 00:10:15;;;;;;;4.47;1.95;;;;;;;1.66;79.43;99059.38;5065749;28;20078;-76
2023/12/10 00:12:44;;;;;;;0.40;0.40;;;;;;;1.59;79.95;99061.69;5116235;28;20043;-77
2023/12/10 00:15:13;;;;;;;1.23;1.13;;;;;;;1.62;79.84;99061.78;5118464;28;20031;-78
2023/12/10 00:17:42;;;;;;;;;;;;;;;1.61;80.39;99076.00;5116379;28;20382;-79
2023/12/10 00:20:11;;;;;;;1.52;1.40;;;;;;;1.61;80.44;99075.19;5115477;28;20010;-79
2023/12/10 00:22:40;;;;;;;3.60;3.33;;;;;;;1.62;80.49;99062.63;5116711;28;20502;-77
2023/12/10 00:25:09;;;;;;;0.77;0.77;;;;;;;1.64;79.72;99070.19;5116366;28;20036;-76
2023/12/10 00:27:40;;;;;;;1.20;1.10;;;;;;;1.62;79.85;99064.28;5098637;28;20036;-78
2023/12/10 00:30:10;;;;;;;1.15;1.10;;;;;;;1.60;79.63;99058.38;5115299;28;20117;-78
2023/12/10 00:32:39;;;;;;;0.38;0.38;;;;;;;1.56;80.45;99047.38;5115256;28;20506;-77
2023/12/10 00:35:09;;;;;;;0.57;0.57;;;;;;;1.62;80.17;99049.19;5115004;28;20394;-75
2023/12/10 00:37:38;;;;;;;2.40;2.03;;;;;;;1.56;79.83;99054.94;5115362;28;20349;-78
2023/12/10 00:40:09;;;;;;;2.08;1.38;;;;;;;1.55;79.56;99047.34;5115164;28;20040;-77
2023/12/10 00:42:40;;;;;;;0.95;0.95;;;;;;;1.50;79.82;99038.84;5115519;28;20036;-77
2023/12/10 00:45:09;;;;;;;0.95;0.93;;;;;;;1.55;79.66;99039.81;5116138;28;20397;-76
2023/12/10 00:47:39;;;;;;;2.65;1.10;;;;;;;1.44;80.17;99021.13;5116089;28;20063;-74
2023/12/10 00:50:08;;;;;;;0.40;0.40;;;;;;;1.52;79.66;99034.69;5115805;28;20036;-75
2023/12/10 00:52:37;;;;;;;4.50;1.83;;;;;;;1.54;80.27;99040.63;5115641;28;20052;-78
2023/12/10 00:55:06;;;;;;;0.70;0.70;;;;;;;1.55;79.96;99040.66;5097501;28;20044;-75
2023/12/10 00:57:35;;;;;;;2.10;1.95;;;;;;;1.57;80.41;99023.09;5114426;28;20046;-75
2023/12/10 01:00:08;;;;;;;0.80;0.80;;;;;;;1.56;80.42;99014.69;5115607;28;20035;-75
2023/12/10 01:02:42;;;;;;;0.38;0.38;;;;;;;1.47;80.08;98996.03;5115803;28;20055;-77
2023/12/10 01:05:11;;;;;;;0.50;0.50;;;;;;;1.58;80.33;99002.19;5115519;28;20088;-76
2023/12/10 01:07:40;;;;;;;0.80;0.80;;;;;;;1.58;80.61;99017.28;5115478;28;20060;-77
2023/12/10 01:10:10;;;;;;;1.00;0.93;;;;;;;1.59;79.91;99011.41;5115758;28;20158;-75
2023/12/10 01:12:39;;;;;;;0.88;0.88;;;;;;;1.47;80.12;99001.06;5115797;28;20039;-74
2023/12/10 01:15:10;;;;;;;4.93;1.77;;;;;;;1.58;80.45;99024.81;5115453;28;20050;-75
2023/12/10 01:17:39;;;;;;;3.15;2.95;;;;;;;1.58;79.93;99024.81;5114107;28;20046;-76
2023/12/10 01:20:09;;;;;;;2.92;1.38;;;;;;;1.61;79.56;99028.22;5115986;28;20493;-76
2023/12/10 01:22:38;;;;;;;1.67;1.55;;;;;;;1.63;79.93;99023.25;5115105;28;20050;-76
2023/12/10 01:25:08;;;;;;;0.30;0.30;;;;;;;1.66;79.74;99025.81;5113790;28;20044;-76
2023/12/10 01:27:37;;;;;;;0.95;0.90;;;;;;;1.54;79.58;98992.84;5115316;28;20039;-76
2023/12/10 01:30:07;;;;;;;0.47;0.47;;;;;;;1.71;79.14;99011.69;5113638;28;20043;-76
2023/12/10 01:32:37;;;;;;;1.20;1.10;;;;;;;1.78;79.06;99001.81;5115220;28;20047;-76
2023/12/10 01:35:08;;;;;;;1.10;1.02;;;;;;;1.71;79.03;98991.56;5113787;28;20417;-76
2023/12/10 01:37:37;;;;;;;1.55;1.45;;;;;;;1.79;79.76;98990.97;5114989;28;20039;-77
2023/12/10 01:40:08;;;;;;;4.53;2.30;;;;;;;1.79;78.98;98980.91;5113739;28;20043;-77
2023/12/10 01:42:37;;;;;;;2.47;2.28;;;;;;;1.74;79.44;98981.59;5096883;28;20047;-77
2023/12/10 01:45:07;;;;;;;0.70;0.70;;;;;;;1.81;78.90;98984.28;5114721;28;20054;-77
2023/12/10 01:47:42;;;;;;;0.63;0.63;;;;;;;1.84;79.38;98970.94;5114525;28;20040;-76
2023/12/10 01:50:13;;;;;;;1.67;1.58;;;;;;;1.85;79.40;98965.94;5113726;28;20044;-76
2023/12/10 01:52:43;;;;;;;1.27;1.17;;;;;;;1.85;79.29;98965.06;5114472;28;20048;-77
2023/12/10 01:55:13;;;;;;;1.50;1.35;;;;;;;1.72;79.56;98948.03;5115443;28;20508;-77
2023/12/10 01:57:42;;;;;;;0.85;0.82;;;;;;;1.83;79.39;98961.69;5113340;28;20135;-74
2023/12/10 02:00:14;;;;;;;1.15;1.08;;;;;;;1.83;79.30;98971.72;5114471;28;20390;-77
2023/12/10 02:02:45;;;;;;;0.43;0.43;;;;;;;1.83;79.42;98976.75;5115110;28;20048;-77
2023/12/10 02:05:14;;;;;;;1.65;1.42;;;;;;;1.84;78.87;98976.81;5114645;28;20393;-76
2023/12/10 02:07:44;;;;;;;1.70;1.25;;;;;;;1.86;79.92;98981.88;5046266;28;20044;-78
2023/12/10 02:10:13;;;;;;;1.80;1.70;;;;;;;1.82;79.14;98970.06;5114413;28;20039;-78
2023/12/10 02:12:43;;;;;;;1.35;1.25;;;;;;;1.83;79.87;98961.69;5114378;28;20028;-75
2023/12/10 02:15:16;;;;;;;1.00;1.00;;;;;;;1.84;79.25;98963.38;5113806;28;20046;-78
2023/12/10 02:17:48;;;;;;;2.72;1.95;;;;;;;1.83;79.65;98949.94;5114502;28;20533;-77
2023/12/10 02:20:18;;;;;;;0.88;0.88;;;;;;;1.90;78.74;98948.41;5114464;28;20044;-77
2023/12/10 02:22:52;;;;;;;0.52;0.52;;;;;;;1.87;78.76;98944.16;5114390;28;20043;-76
2023/12/10 02:25:33;;;;;;;0.80;0.80;;;;;;;1.83;79.46;98952.47;5114401;28;20134;-79
2023/12/10 02:28:03;;;;;;;3.15;2.45;;;;;;;1.86;78.99;98951.69;5114326;28;20059;-78
2023/12/10 02:30:32;;;;;;;0.28;0.28;;;;;;;1.81;79.91;98920.56;5113921;28;20048;-76
2023/12/10 02:33:01;;;;;;;1.30;1.20;;;;;;;1.87;78.95;98913.16;5112890;28;20040;-75
2023/12/10 02:35:31;;;;;;;0.57;0.57;;;;;;;1.86;79.75;98913.97;5112955;28;20444;-76
2023/12/10 02:38:03;;;;;;;0.75;0.75;;;;;;;1.84;79.09;98913.94;5113832;28;20043;-78
2023/12/10 02:40:33;;;;;;;3.20;1.42;;;;;;;1.85;80.04;98909.72;5112951;28;20063;-76
2023/12/10 02:43:02;;;;;;;4.95;3.20;;;;;;;1.84;79.19;98918.97;5112728;28;20048;-78
2023/12/10 02:45:31;;;;;;;1.05;0.73;;;;;;;1.84;79.89;98929.03;5114005;28;20047;-76
2023/12/10 02:48:00;;;;;;;0.60;0.60;;;;;;;1.81;79.31;98925.59;5112536;28;20135;-76
2023/12/10 02:50:29;;;;;;;0.35;0.35;;;;;;;1.77;79.52;98917.13;5096163;28;20138;-77
2023/12/10 02:52:58;;;;;;;2.23;2.03;;;;;;;1.84;79.40;98933.19;5112814;28;20043;-75
2023/12/10 02:55:27;;;;;;;0.30;0.30;;;;;;;1.83;78.87;98913.88;5112829;28;20766;-78
2023/12/10 02:57:58;;;;;;;2.85;2.65;;;;;;;1.83;79.25;98916.41;5113171;28;20032;-77
2023/12/10 03:00:28;;;;;;;1.52;1.42;;;;;;;1.77;79.46;98908.75;5114180;28;20496;-78
2023/12/10 03:02:57;;;;;;;0.32;0.32;;;;;;;1.82;79.58;98919.75;5114055;28;20085;-78
2023/12/10 03:05:26;;;;;;;1.05;1.02;;;;;;;1.83;79.01;98917.25;5112899;28;20163;-77
2023/12/10 03:07:55;;;;;;;1.67;0.95;;;;;;;1.87;78.91;98915.66;5113936;28;20040;-77
2023/12/10 03:10:24;;;;;;;;;;;;;;;1.85;78.84;98909.72;5113050;28;20089;-78
2023/12/10 03:12:53;;;;;;;0.55;0.55;;;;;;;1.86;79.16;98911.44;5115314;28;19923;-77
2023/12/10 03:15:23;;;;;;;0.50;0.50;;;;;;;1.90;79.42;98910.69;5117891;28;20040;-78
2023/12/10 03:17:53;;;;;;;0.73;0.70;;;;;;;1.92;79.04;98906.56;5117791;28;20071;-74
2023/12/10 03:20:22;;;;;;;1.75;1.15;;;;;;;1.93;78.74;98903.19;5117536;27;20401;-78
2023/12/10 03:22:51;;;;;;;0.65;0.65;;;;;;;1.93;79.14;98908.22;5117900;28;20044;-78
2023/12/10 03:25:20;;;;;;;0.30;0.30;;;;;;;1.88;79.70;98893.06;5117752;28;20042;-77
2023/12/10 03:27:53;;;;;;;0.95;0.95;;;;;;;1.98;78.49;98906.66;5116575;28;20146;-77
2023/12/10 03:30:23;;;;;;;1.05;1.05;;;;;;;1.77;79.20;98873.53;5117523;28;20466;-78
2023/12/10 03:32:52;;;;;;;1.10;1.10;;;;;;;1.94;78.78;98895.69;5117621;28;20055;-78
2023/12/10 03:35:21;;;;;;;1.00;1.00;;;;;;;1.98;79.01;98907.53;5116315;28;20040;-76
2023/12/10 03:37:50;;;;;;;0.60;0.60;;;;;;;1.98;79.46;98901.63;5116405;28;20042;-77
2023/12/10 03:40:19;;;;;;;0.73;0.73;;;;;;;1.97;78.81;98909.97;5117464;28;20039;-77
2023/12/10 03:42:48;;;;;;;0.57;0.57;;;;;;;1.93;79.21;98906.56;5117460;28;20117;-76
2023/12/10 03:45:17;;;;;;;1.40;1.23;;;;;;;1.95;79.32;98916.66;5117429;28;20035;-77
2023/12/10 03:47:47;;;;;;;0.73;0.73;;;;;;;1.94;79.71;98925.03;5099195;28;20489;-77
2023/12/10 03:50:17;;;;;;;0.80;0.80;;;;;;;1.91;79.57;98912.38;5116131;28;20039;-77
2023/12/10 03:52:46;;;;;;;1.77;1.67;;;;;;;1.91;79.80;98909.88;5117127;28;20603;-77
2023/12/10 03:55:17;;;;;;;3.20;0.77;;;;;;;1.74;79.97;98879.34;5117136;27;20039;-77
2023/12/10 03:57:48;;;;;;;0.63;0.63;;;;;;;1.91;80.19;98917.41;5117169;27;20044;-77
2023/12/10 04:00:19;;;;;;;2.20;2.00;;;;;;;1.83;80.53;98916.41;5116929;28;20048;-77
2023/12/10 04:02:49;;;;;;;0.73;0.73;;;;;;;1.79;80.80;98912.13;5116784;28;20412;-77
2023/12/10 04:05:18;;;;;;;0.88;0.88;;;;;;;1.78;81.47;98920.47;5115779;28;20130;-76
2023/12/10 04:07:49;;;;;;;1.45;1.35;;;;;;;1.72;81.32;98922.88;5115663;28;20040;-78
2023/12/10 04:10:18;;;;;;;0.50;0.50;;;;;;;1.62;82.29;98919.31;5065956;28;20505;-77
2023/12/10 04:12:47;;;;;;;1.85;1.75;;;;;;;1.67;82.31;98921.94;5116464;28;20562;-77
2023/12/10 04:15:16;;;;;;;1.15;1.10;;;;;;;1.63;82.10;98923.50;5116811;28;20035;-76
2023/12/10 04:17:45;;;;;;;2.40;1.65;;;;;;;1.63;83.21;98923.50;5115446;28;20040;-77
2023/12/10 04:20:16;;;;;;;1.37;1.30;;;;;;;1.61;83.65;98930.16;5116289;28;20092;-76
2023/12/10 04:22:45;;;;;;;1.40;1.30;;;;;;;1.63;83.10;98935.25;5115013;28;20276;-76
2023/12/10 04:25:15;;;;;;;0.50;0.50;;;;;;;1.60;83.38;98940.22;5116598;28;20032;-75
2023/12/10 04:27:43;;;;;;;0.80;0.80;;;;;;;1.51;84.19;98920.75;5116488;28;20355;-76
2023/12/10 04:30:14;;;;;;;1.75;1.65;;;;;;;1.48;84.36;98925.69;5115993;28;20067;-78
2023/12/10 04:32:43;;;;;;;0.65;0.65;;;;;;;1.47;85.08;98925.66;5115141;28;20051;-76
2023/12/10 04:35:12;;;;;;;0.55;0.55;;;;;;;1.42;84.61;98918.00;5116483;28;20070;-75
2023/12/10 04:37:43;;;;;;;2.00;1.17;;;;;;;1.42;84.69;98927.22;5116373;28;20074;-75
2023/12/10 04:40:13;;;;;;;1.42;1.33;;;;;;;1.40;85.50;98928.84;5116222;28;20048;-73
2023/12/10 04:42:43;;;;;;;0.85;0.85;;;;;;;1.39;85.40;98932.19;5116256;28;20043;-76
2023/12/10 04:45:12;;;;;;;1.60;1.50;;;;;;;1.38;85.17;98928.81;5116275;28;20134;-75
2023/12/10 04:47:41;;;;;;;0.57;0.57;;;;;;;1.27;85.64;98918.50;5097718;28;20462;-77
2023/12/10 04:50:11;;;;;;;1.13;1.05;;;;;;;1.30;85.74;98928.63;5114942;28;20129;-77
2023/12/10 04:52:42;;;;;;;3.08;2.85;;;;;;;1.31;86.88;98935.38;5115107;28;20047;-75
2023/12/10 04:55:11;;;;;;;1.10;1.02;;;;;;;1.30;86.70;98943.72;5115939;28;20405;-75
2023/12/10 04:57:40;;;;;;;1.05;0.88;;;;;;;1.29;86.49;98951.22;5114599;28;20039;-76
2023/12/10 05:00:09;;;;;;;1.87;1.77;;;;;;;1.28;87.14;98950.38;5115879;28;20127;-77
2023/12/10 05:02:38;;;;;;;;;;;;;;;1.31;87.35;98960.50;5098618;28;20292;-74
2023/12/10 05:05:08;;;;;;;0.65;0.65;;;;;;;1.27;86.78;98947.81;5114659;28;19927;-75
2023/12/10 05:07:37;;;;;;;0.60;0.60;;;;;;;1.32;86.68;98972.22;5115479;28;20478;-75
2023/12/10 05:10:10;;;;;;;2.20;2.03;;;;;;;1.35;86.57;98982.38;5047714;28;20073;-73
2023/12/10 05:12:39;;;;;;;0.95;0.95;;;;;;;1.12;86.75;98933.22;5114368;28;20071;-75
2023/12/10 05:15:09;;;;;;;0.82;0.82;;;;;;;1.33;86.80;98975.59;5115260;28;20115;-75
2023/12/10 05:17:38;;;;;;;1.60;0.95;;;;;;;1.32;87.05;98969.72;5115496;28;20535;-75
2023/12/10 05:20:08;;;;;;;1.10;0.93;;;;;;;1.31;86.71;98973.06;5115262;28;20101;-75
2023/12/10 05:22:37;;;;;;;0.45;0.45;;;;;;;1.29;86.62;98987.25;5115656;28;20527;-75
2023/12/10 05:25:08;;;;;;;0.73;0.73;;;;;;;1.10;86.98;98954.97;5114281;28;20032;-79
2023/12/10 05:27:37;;;;;;;4.30;1.77;;;;;;;1.25;86.58;98993.00;5115385;28;20050;-77
2023/12/10 05:30:07;;;;;;;0.40;0.40;;;;;;;1.20;87.23;98981.16;5114892;28;20131;-76
2023/12/10 05:32:36;;;;;;;0.63;0.63;;;;;;;1.18;87.52;98983.63;5115311;28;20051;-78
2023/12/10 05:35:06;;;;;;;3.90;3.57;;;;;;;1.16;87.23;98980.22;5113186;28;20047;-77
2023/12/10 05:37:34;;;;;;;;;;;;;;;1.21;88.13;98988.72;5114280;28;20298;-77
2023/12/10 05:40:04;;;;;;;0.40;0.40;;;;;;;1.19;88.11;98990.34;5112666;28;19924;-77
2023/12/10 05:42:35;;;;;;;2.30;1.17;;;;;;;1.17;88.24;98984.44;5113862;28;20040;-76
2023/12/10 05:45:04;;;;;;;1.70;1.60;;;;;;;0.66;88.58;98902.75;5114763;28;20058;-77
2023/12/10 05:47:33;;;;;;;0.47;0.47;;;;;;;1.20;88.14;98992.03;5113474;28;20047;-76
2023/12/10 05:50:03;;;;;;;1.33;1.23;;;;;;;1.01;88.79;98969.78;5113625;28;20047;-76
2023/12/10 05:52:31;;;;;;;0.30;0.30;;;;;;;1.16;88.53;98985.25;5114889;28;20032;-76
2023/12/10 05:55:00;;;;;;;0.38;0.38;;;;;;;1.21;88.92;98993.75;5113758;28;20122;-76
2023/12/10 05:57:30;;;;;;;2.28;1.58;;;;;;;1.24;88.85;98998.84;5114751;28;20043;-77
2023/12/10 06:00:01;;;;;;;0.45;0.45;;;;;;;1.10;88.71;98969.19;5114457;28;20048;-76
2023/12/10 06:02:32;;;;;;;0.77;0.77;;;;;;;1.28;88.46;99008.16;5113557;28;20051;-76
2023/12/10 06:05:01;;;;;;;0.40;0.40;;;;;;;1.29;89.07;99012.38;5114528;28;20067;-76
2023/12/10 06:07:30;;;;;;;0.20;0.20;;;;;;;1.30;88.44;99004.03;5114392;28;20035;-76
2023/12/10 06:09:59;;;;;;;1.13;0.75;;;;;;;1.27;88.34;99006.44;5113086;28;20074;-76
2023/12/10 06:12:28;;;;;;;0.70;0.70;;;;;;;1.26;88.64;99003.91;5114540;28;20038;-76
2023/12/10 06:14:57;;;;;;;1.10;1.08;;;;;;;1.22;89.26;99008.00;5113023;28;20131;-78
2023/12/10 06:17:28;;;;;;;1.10;1.07;;;;;;;1.18;88.75;99013.75;5114515;28;20126;-76
2023/12/10 06:19:57;;;;;;;2.80;1.95;;;;;;;1.04;89.30;98994.97;5113870;28;20370;-76
2023/12/10 06:22:26;;;;;;;0.38;0.38;;;;;;;1.17;89.21;99022.13;5096008;28;20047;-78
2023/12/10 06:24:55;;;;;;;0.50;0.50;;;;;;;1.14;89.41;99012.00;5114385;28;20040;-77
2023/12/10 06:27:24;;;;;;;0.57;0.57;;;;;;;1.19;89.83;99020.50;5112362;28;20502;-76
2023/12/10 06:29:53;;;;;;;0.30;0.30;;;;;;;1.19;89.08;99024.69;5113992;28;20048;-77
2023/12/10 06:32:23;;;;;;;0.95;0.95;;;;;;;1.20;89.13;99029.72;5113176;28;20051;-77
2023/12/10 06:34:53;;;;;;;0.45;0.45;;;;;;;1.13;89.29;99020.34;5096590;28;20043;-77
2023/12/10 06:37:23;;;;;;;0.45;0.45;;;;;;;1.18;89.27;99003.72;5114608;28;20443;-77
2023/12/10 06:39:52;;;;;;;1.20;0.88;;;;;;;1.38;90.08;99036.03;5112707;28;20065;-77
2023/12/10 06:42:21;;;;;;;0.73;0.73;;;;;;;1.38;89.48;99049.47;5113745;28;20068;-77
2023/12/10 06:44:51;;;;;;;0.55;0.55;;;;;;;1.42;89.33;99058.75;5113870;28;20039;-76
2023/12/10 06:47:20;;;;;;;1.33;1.23;;;;;;;1.45;90.11;99063.03;5116235;28;20130;-76
2023/12/10 06:49:49;;;;;;;0.40;0.40;;;;;;;1.43;90.09;99067.16;5117047;28;20100;-77
2023/12/10 06:52:23;;;;;;;0.60;0.60;;;;;;;1.45;90.05;99070.56;5117186;28;20093;-77
2023/12/10 06:54:52;;;;;;;0.50;0.50;;;;;;;1.32;90.18;99062.72;5117949;28;20054;-77
2023/12/10 06:57:21;;;;;;;0.60;0.60;;;;;;;1.42;90.47;99078.06;5118259;28;20505;-77
2023/12/10 06:59:50;;;;;;;2.90;1.85;;;;;;;1.48;90.19;99088.25;5116903;28;20043;-77
2023/12/10 07:02:19;;;;;;;0.40;0.40;;;;;;;1.44;90.17;99086.47;5116594;28;20043;-77
2023/12/10 07:04:48;;;;;;;0.30;0.30;;;;;;;1.47;90.10;99081.50;5116804;28;20260;-77
2023/12/10 07:07:16;;;;;;;0.32;0.32;;;;;;;1.52;90.08;99087.50;5117902;28;20104;-78
2023/12/10 07:09:47;;;;;;;0.73;0.70;;;;;;;1.54;90.14;99088.38;5117685;28;20046;-78
2023/12/10 07:12:17;;;;;;;1.05;1.05;;;;;;;1.54;90.30;99093.41;5114742;28;20043;-77
2023/12/10 07:14:46;;;;;;;;;;;;;;;1.59;90.69;99096.91;5108101;28;20066;-77
2023/12/10 07:17:19;;;;;;;1.55;1.45;;;;;;;1.56;89.74;99096.84;5097121;28;20435;-76
2023/12/10 07:19:47;;;;;;;1.13;1.02;;;;;;;1.58;90.34;99101.09;5097545;28;20134;-77
2023/12/10 07:22:16;;;;;;;0.98;0.98;;;;;;;1.59;90.10;99106.94;5095852;28;20509;-77
2023/12/10 07:24:46;;;;;;;0.35;0.35;;;;;;;1.63;90.38;99103.72;5096136;28;20067;-78
2023/12/10 07:27:15;;;;;;;0.60;0.60;;;;;;;1.66;89.73;99108.81;5095832;28;20051;-78
2023/12/10 07:29:44;;;;;;;2.78;2.58;;;;;;;1.66;90.54;99118.88;5095467;28;20079;-78
2023/12/10 07:32:13;;;;;;;1.17;1.08;;;;;;;1.67;90.20;99121.44;5096539;28;20506;-78
2023/12/10 07:34:42;;;;;;;0.65;0.65;;;;;;;1.66;89.85;99123.91;5078970;28;20513;-77
2023/12/10 07:37:12;;;;;;;2.08;1.45;;;;;;;1.68;90.91;99127.31;5097311;28;20135;-77
2023/12/10 07:39:40;;;;;;;2.22;1.63;;;;;;;1.69;91.01;99131.53;5099695;28;20525;-77
2023/12/10 07:42:11;;;;;;;1.70;1.52;;;;;;;1.71;90.52;99137.44;5106445;28;20031;-77
2023/12/10 07:44:39;;;;;;;0.73;0.70;;;;;;;1.73;89.98;99135.81;5107536;28;20050;-77
2023/12/10 07:47:09;;;;;;;2.88;1.50;;;;;;;1.70;90.59;99141.66;5104947;28;20036;-75
2023/12/10 07:49:40;;;;;;;1.05;1.05;;;;;;;1.58;90.23;99126.25;5105359;28;20047;-76
2023/12/10 07:52:09;;;;;;;0.47;0.47;;;;;;;1.72;90.68;99151.72;5105132;28;20032;-76
2023/12/10 07:54:41;;;;;;;2.70;1.60;;;;;;;1.71;90.00;99160.06;5096886;28;20036;-76
2023/12/10 07:57:12;;;;;;;10.77;3.70;;;;;;;1.74;90.64;99162.69;5096196;28;20040;-76
2023/12/10 07:59:41;;;;;;;2.58;1.85;;;;;;;1.73;90.30;99176.06;5096503;28;20040;-76
2023/12/10 08:02:10;;;;;;;1.43;1.33;;;;;;;1.69;90.89;99179.31;5095167;28;20036;-76
2023/12/10 08:04:39;;;;;;;2.17;2.07;;;;;;;1.66;90.54;99170.03;5078102;28;20693;-75
2023/12/10 08:07:08;;;;;;;0.40;0.40;;;;;;;1.77;91.28;99178.72;5095581;28;20048;-75
2023/12/10 08:09:37;;;;;;;0.63;0.63;;;;;;;1.58;90.33;99161.44;5095498;28;20330;-75
2023/12/10 08:12:06;;;;;;;0.80;0.80;;;;;;;1.68;91.36;99188.50;5095213;28;20052;-75
2023/12/10 08:14:36;;;;;;;;;;;;;;;1.74;91.26;99197.88;5096797;28;20074;-75
2023/12/10 08:17:05;;;;;;;1.40;1.30;;;;;;;1.68;90.49;99185.16;5095190;28;19927;-77
2023/12/10 08:19:35;;;;;;;0.63;0.63;;;;;;;1.76;91.17;99201.28;5096092;28;20105;-77
2023/12/10 08:22:04;;;;;;;0.60;0.60;;;;;;;1.80;91.28;99208.13;5095793;28;20109;-77
2023/12/10 08:24:33;;;;;;;1.05;1.00;;;;;;;1.78;91.09;99209.72;5096010;28;20047;-77
2023/12/10 08:27:02;;;;;;;0.50;0.50;;;;;;;1.77;90.96;99197.97;5096127;28;20478;-75
2023/12/10 08:29:31;;;;;;;0.30;0.30;;;;;;;1.80;90.74;99203.09;5095778;28;20126;-74
2023/12/10 08:32:01;;;;;;;0.97;0.93;;;;;;;1.79;90.55;99206.41;5096319;28;20040;-72
2023/12/10 08:34:30;;;;;;;3.42;2.85;;;;;;;1.70;91.00;99193.59;5095748;28;20044;-74
2023/12/10 08:36:59;;;;;;;0.63;0.63;;;;;;;1.85;90.81;99207.41;5077726;28;20050;-77
2023/12/10 08:39:28;;;;;;;1.08;1.05;;;;;;;1.88;90.47;99216.69;5095915;28;20040;-73
2023/12/10 08:41:57;;;;;;;0.97;0.97;;;;;;;1.92;90.61;99228.56;5095450;28;20032;-74
2023/12/10 08:44:27;;;;;;;2.25;1.23;;;;;;;1.79;91.43;99201.38;5095840;28;20527;-74
2023/12/10 08:46:55;;;;;;;1.50;1.40;;;;;;;1.95;91.01;99223.59;5095684;28;20055;-73
2023/12/10 08:49:26;;;;;;;2.23;2.03;;;;;;;1.95;90.75;99228.63;5095182;28;20101;-74
2023/12/10 08:51:55;;;;;;;0.93;0.93;;;;;;;1.98;90.75;99228.72;5095592;28;20303;-74
2023/12/10 08:54:25;;;;;;;0.63;0.60;;;;;;;1.98;90.59;99231.22;5095455;28;20128;-72
2023/12/10 08:56:54;;;;;;;0.60;0.60;;;;;;;2.02;91.17;99230.47;5095557;28;20052;-73
2023/12/10 08:59:23;;;;;;;0.90;0.90;;;;;;;2.08;91.39;99230.66;5095475;28;20127;-73
2023/12/10 09:01:52;;;;;;;1.13;1.07;;;;;;;2.13;90.77;99239.19;5095245;28;20036;-71
2023/12/10 09:04:21;;;;;;;1.92;1.83;;;;;;;2.12;90.78;99227.38;5095017;28;20057;-75
2023/12/10 09:06:51;;;;;;;2.47;2.28;;;;;;;2.16;91.48;99238.41;5095377;28;20135;-72
2023/12/10 09:09:20;;;;;;;1.17;1.15;;;;;;;2.18;90.53;99247.69;5094173;28;20087;-71
2023/12/10 09:11:49;;;;;;;0.77;0.67;;;;;;;2.12;90.60;99224.88;5095083;28;20224;-72
2023/12/10 09:14:18;;;;;;;2.07;1.53;;;;;;;2.23;90.44;99246.13;5095268;28;20077;-74
2023/12/10 09:16:47;;;;;;;1.10;1.00;;;;;;;2.12;90.44;99229.91;5093145;28;20127;-76
2023/12/10 09:19:21;;;;;;;0.32;0.32;;;;;;;2.25;90.41;99248.69;5095026;28;20087;-77
2023/12/10 09:21:53;;;;;;;3.08;0.93;;;;;;;2.25;91.10;99254.59;5094893;28;20036;-77
2023/12/10 09:24:22;;;;;;;0.65;0.65;;;;;;;2.25;91.11;99246.19;5076622;28;20490;-76
2023/12/10 09:26:51;;;;;;;3.63;1.73;;;;;;;2.26;90.95;99236.13;5094896;28;20123;-76
2023/12/10 09:29:22;;;;;;;1.20;1.10;;;;;;;2.24;90.86;99257.03;5094677;28;20052;-74
2023/12/10 09:31:50;;;;;;;1.42;1.33;;;;;;;2.22;90.58;99254.50;5094905;28;20048;-74
2023/12/10 09:34:19;;;;;;;3.93;1.93;;;;;;;2.22;90.89;99254.50;5094927;28;20036;-75
2023/12/10 09:36:53;;;;;;;1.95;1.10;;;;;;;2.22;90.88;99253.66;5095108;28;20101;-76
2023/12/10 09:39:23;;;;;;;0.50;0.50;;;;;;;2.28;90.48;99254.63;5083031;28;20462;-76
2023/12/10 09:41:52;;;;;;;2.13;1.95;;;;;;;2.27;90.06;99263.03;5100932;28;20397;-75
2023/12/10 09:44:21;;;;;;;0.40;0.40;;;;;;;2.29;90.97;99255.50;5107990;28;20055;-76
2023/12/10 09:46:50;;;;;;;2.67;2.08;;;;;;;2.29;90.41;99255.50;5098863;28;20044;-77
2023/12/10 09:49:19;;;;;;;;;;;;;;;2.30;90.18;99247.16;5100336;28;20043;-76
2023/12/10 09:51:48;;;;;;;0.47;0.47;;;;;;;2.30;90.23;99247.16;5099242;28;20328;-79
2023/12/10 09:54:20;;;;;;;0.57;0.57;;;;;;;2.26;90.02;99246.19;5109057;28;20043;-79
2023/12/10 09:56:49;;;;;;;1.05;0.88;;;;;;;2.28;90.13;99258.84;5114563;28;20044;-78
2023/12/10 09:59:18;;;;;;;1.17;1.08;;;;;;;2.27;90.46;99263.03;5114384;28;20071;-77
2023/12/10 10:01:50;;;;;;;1.47;1.40;;;;;;;2.31;90.55;99264.78;5114670;28;20054;-79
2023/12/10 10:04:19;;;;;;;3.63;1.63;;;;;;;2.28;90.31;99264.72;5096868;28;20631;-80
2023/12/10 10:06:48;;;;;;;2.95;1.77;;;;;;;1.67;90.09;99161.69;5100187;28;20375;-78
2023/12/10 10:09:18;;;;;;;0.70;0.70;;;;;;;2.32;90.06;99261.47;5113750;28;20138;-78
2023/12/10 10:12:03;;;;;;;1.63;1.52;;;;;;;1.72;90.38;99166.81;5113090;28;20275;-78
2023/12/10 10:14:32;;;;;;;0.65;0.65;;;;;;;2.33;91.06;99268.19;5114711;28;20043;-78
2023/12/10 10:17:01;;;;;;;1.92;1.80;;;;;;;2.32;89.95;99271.53;5112955;28;20134;-76
2023/12/10 10:19:30;;;;;;;0.68;0.68;;;;;;;2.31;90.37;99267.31;5114165;28;20044;-76
2023/12/10 10:21:59;;;;;;;1.55;1.45;;;;;;;2.32;90.57;99266.50;5112790;28;20566;-76
2023/12/10 10:24:32;;;;;;;1.98;1.88;;;;;;;2.33;90.19;99268.19;5114420;28;20047;-77
2023/12/10 10:27:01;;;;;;;0.75;0.75;;;;;;;2.33;90.28;99273.22;5114267;28;20075;-76
2023/12/10 10:29:30;;;;;;;17.20;5.47;;;;;;;2.33;90.07;99273.22;5113974;28;20054;-77
2023/12/10 10:32:00;;;;;;;3.65;2.90;;;;;;;2.30;90.12;99267.28;5114119;28;20056;-77
2023/12/10 10:34:30;;;;;;;4.28;2.25;;;;;;;2.35;90.55;99276.63;5114268;28;20050;-77
2023/12/10 10:36:59;;;;;;;1.00;1.00;;;;;;;2.36;90.95;99272.47;5113130;28;20043;-78
2023/12/10 10:39:30;;;;;;;2.42;2.08;;;;;;;2.32;90.12;99275.72;5096065;28;20047;-78
2023/12/10 10:42:04;;;;;;;1.75;1.40;;;;;;;2.15;90.43;99267.75;5096052;28;20093;-78
2023/12/10 10:44:33;;;;;;;0.50;0.50;;;;;;;2.07;90.43;99244.03;5112541;28;20047;-78
2023/12/10 10:47:05;;;;;;;2.90;2.70;;;;;;;2.32;90.91;99289.16;5113632;28;20047;-77
2023/12/10 10:49:37;;;;;;;2.65;2.05;;;;;;;2.05;90.43;99238.13;5112873;28;20280;-77
2023/12/10 10:52:13;;;;;;;0.88;0.88;;;;;;;2.31;90.53;99292.50;5112955;28;20047;-76
2023/12/10 10:54:45;;;;;;;8.25;1.27;;;;;;;2.28;90.53;99287.38;5113879;28;20462;-77
2023/12/10 10:57:27;;;;;;;0.95;0.95;;;;;;;1.87;90.45;99212.50;5112982;28;20044;-76
2023/12/10 10:59:57;;;;;;;0.50;0.50;;;;;;;2.30;91.05;99272.31;5115016;28;20055;-76
2023/12/10 11:02:26;;;;;;;0.20;0.20;;;;;;;2.08;90.76;99240.72;5113975;28;20497;-76
2023/12/10 11:04:58;;;;;;;0.73;0.73;;;;;;;1.99;90.41;99231.25;5112757;28;20127;-75
2023/12/10 11:07:26;;;;;;;1.73;1.63;;;;;;;2.33;90.88;99290.00;5112816;28;20043;-74
2023/12/10 11:10:00;;;;;;;1.25;1.20;;;;;;;2.32;90.79;99296.72;5114047;28;20035;-74
2023/12/10 11:12:45;;;;;;;1.42;1.25;;;;;;;2.32;90.13;99296.72;5114082;28;20138;-74
2023/12/10 11:15:25;;;;;;;0.88;0.82;;;;;;;2.35;90.45;99294.25;5112571;28;20035;-74
2023/12/10 11:17:58;;;;;;;1.88;1.73;;;;;;;2.40;90.79;99295.22;5113993;28;20152;-73
2023/12/10 11:20:32;;;;;;;2.20;1.30;;;;;;;2.35;91.26;99294.25;5113678;28;20481;-73
2023/12/10 11:23:03;;;;;;;1.25;1.15;;;;;;;2.28;90.58;99304.16;5113656;28;20039;-73
2023/12/10 11:25:34;;;;;;;1.38;1.20;;;;;;;2.34;90.47;99304.31;5095538;28;20585;-73
2023/12/10 11:28:10;;;;;;;1.10;0.88;;;;;;;2.36;91.17;99303.53;5113669;28;20043;-73
2023/12/10 11:30:40;;;;;;;1.40;1.30;;;;;;;2.35;90.22;99306.84;5113264;28;20051;-73
2023/12/10 11:33:10;;;;;;;0.55;0.55;;;;;;;2.38;91.12;99311.97;5115026;28;20054;-73
2023/12/10 11:35:39;;;;;;;;;;;;;;;2.41;90.39;99319.59;5099662;28;20043;-74
2023/12/10 11:38:09;;;;;;;0.70;0.70;;;;;;;2.35;91.04;99308.53;5116596;28;20307;-74
2023/12/10 11:40:41;;;;;;;0.80;0.80;;;;;;;2.43;91.24;99309.56;5117469;28;20553;-74
2023/12/10 11:43:10;;;;;;;6.45;2.47;;;;;;;2.43;90.52;99310.41;5117099;28;20040;-75
2023/12/10 11:45:39;;;;;;;0.67;0.67;;;;;;;2.42;90.57;99298.66;5117432;28;20054;-75
2023/12/10 11:48:08;;;;;;;1.70;1.60;;;;;;;2.42;90.35;99308.75;5117366;28;20122;-73
2023/12/10 11:50:38;;;;;;;2.07;1.93;;;;;;;2.42;90.98;99318.81;5116354;28;20286;-74
2023/12/10 11:53:07;;;;;;;0.68;0.68;;;;;;;2.41;90.76;99312.06;5117122;28;20375;-72
2023/12/10 11:55:36;;;;;;;1.10;1.02;;;;;;;2.41;91.12;99313.72;5098862;28;20035;-72